Time;durP1;ratioP1;P1;durP2;ratioP2;P2;SDS_P1;SDS_P2;PMS_P1;PMS_P2;Temp;Humidity;BMP_temperature;BMP_pressure;BME280_temperature;BME280_humidity;BME280_pressure;Samples;Min_cycle;Max_cycle;Signal;HPM_P1;HPM_P2
2023/01/09 00:02:24;;;;;;;5.57;3.05;;;5.70;99.90;;;;;;5042523;28;20093;-71
2023/01/09 00:04:50;;;;;;;5.95;3.53;;;5.70;99.90;;;;;;5041797;28;20024;-70
2023/01/09 00:07:15;;;;;;;7.97;3.30;;;5.70;99.90;;;;;;5042283;28;20037;-72
2023/01/09 00:09:41;;;;;;;7.55;3.45;;;5.80;99.90;;;;;;5042380;28;20031;-72
2023/01/09 00:12:06;;;;;;;6.45;3.35;;;5.70;99.90;;;;;;5042306;28;20053;-70
2023/01/09 00:14:32;;;;;;;5.47;3.28;;;5.70;99.90;;;;;;5042211;28;20033;-71
2023/01/09 00:16:57;;;;;;;7.75;3.40;;;5.70;99.90;;;;;;5039198;28;20029;-71
2023/01/09 00:19:23;;;;;;;8.57;3.33;;;5.70;99.90;;;;;;5041146;28;20029;-71
2023/01/09 00:21:49;;;;;;;6.00;3.25;;;5.70;99.90;;;;;;5042096;28;20080;-71
2023/01/09 00:24:15;;;;;;;4.78;3.17;;;5.80;99.90;;;;;;5039361;28;20460;-71
2023/01/09 00:26:41;;;;;;;6.03;3.25;;;5.70;99.90;;;;;;5042026;28;20121;-72
2023/01/09 00:29:09;;;;;;;4.97;3.05;;;5.70;99.90;;;;;;5042032;28;20463;-70
2023/01/09 00:31:35;;;;;;;5.43;3.20;;;5.70;99.90;;;;;;5040755;28;20029;-71
2023/01/09 00:34:04;;;;;;;6.50;3.15;;;5.70;99.90;;;;;;5041887;28;20140;-70
2023/01/09 00:36:31;;;;;;;7.30;2.88;;;5.70;99.90;;;;;;5041469;28;20037;-71
2023/01/09 00:38:56;;;;;;;6.68;2.97;;;5.80;99.90;;;;;;5042071;28;20083;-72
2023/01/09 00:41:27;;;;;;;5.00;2.70;;;5.80;99.90;;;;;;5040309;28;20021;-70
2023/01/09 00:43:57;;;;;;;4.95;2.90;;;5.80;99.90;;;;;;5041721;28;20036;-70
2023/01/09 00:46:33;;;;;;;6.38;3.50;;;5.90;99.90;;;;;;5041686;28;20030;-71
2023/01/09 00:49:01;;;;;;;5.60;3.00;;;5.80;99.90;;;;;;5041257;28;20390;-71
2023/01/09 00:51:27;;;;;;;5.85;3.20;;;5.90;99.90;;;;;;5041338;28;20024;-72
2023/01/09 00:53:52;;;;;;;8.68;3.45;;;5.90;99.90;;;;;;5040112;28;20057;-69
2023/01/09 00:56:20;;;;;;;8.68;3.10;;;5.90;99.90;;;;;;5041214;28;20095;-69
2023/01/09 00:58:47;;;;;;;6.82;3.47;;;5.90;99.90;;;;;;5040074;28;20075;-71
2023/01/09 01:01:13;;;;;;;6.75;3.47;;;5.90;99.90;;;;;;5039806;28;20026;-70
2023/01/09 01:03:39;;;;;;;4.30;2.80;;;6.00;99.90;;;;;;5040052;28;20032;-72
2023/01/09 01:08:49;;;;;;;5.88;2.85;;;6.00;99.90;;;;;;5041321;28;20075;-69
2023/01/09 01:11:14;;;;;;;4.70;2.92;;;6.00;99.90;;;;;;5039878;28;20037;-69
2023/01/09 01:13:40;;;;;;;7.22;3.78;;;5.90;99.90;;;;;;5039939;28;20036;-72
2023/01/09 01:16:08;;;;;;;5.25;3.15;;;6.10;99.90;;;;;;5041289;28;20017;-70
2023/01/09 01:18:34;;;;;;;6.40;3.35;;;6.10;99.90;;;;;;5039645;28;20025;-70
2023/01/09 01:20:59;;;;;;;7.13;3.00;;;6.10;99.90;;;;;;5041186;28;20021;-69
2023/01/09 01:23:25;;;;;;;8.40;3.53;;;6.10;99.90;;;;;;5041441;28;20462;-70
2023/01/09 01:25:51;;;;;;;5.75;3.15;;;6.20;99.90;;;;;;5039391;28;20136;-70
2023/01/09 01:28:18;;;;;;;6.30;3.42;;;6.10;99.90;;;;;;5040949;28;20493;-71
2023/01/09 01:30:43;;;;;;;7.88;3.72;;;6.20;99.90;;;;;;5041389;28;20035;-70
2023/01/09 01:33:10;;;;;;;6.65;3.75;;;6.30;99.90;;;;;;5039621;28;20072;-70
2023/01/09 01:35:36;;;;;;;8.27;3.80;;;6.30;99.90;;;;;;5041036;28;20063;-70
2023/01/09 01:38:03;;;;;;;6.28;3.33;;;6.30;99.90;;;;;;5040266;28;20459;-70
2023/01/09 01:40:28;;;;;;;6.35;3.35;;;6.30;99.90;;;;;;5039785;28;20036;-70
2023/01/09 01:42:54;;;;;;;6.10;3.08;;;6.30;99.90;;;;;;5040985;28;20018;-71
2023/01/09 01:45:22;;;;;;;5.95;3.13;;;6.30;99.90;;;;;;5039671;28;20029;-71
2023/01/09 01:48:11;;;;;;;6.97;3.42;;;6.30;99.90;;;;;;5040844;28;20033;-71
2023/01/09 01:50:46;;;;;;;6.65;3.60;;;6.30;99.90;;;;;;5040742;28;20041;-71
2023/01/09 01:53:14;;;;;;;5.65;3.45;;;6.40;99.90;;;;;;5039330;28;20024;-71
2023/01/09 01:55:45;;;;;;;6.93;3.67;;;6.40;99.90;;;;;;5040596;28;20029;-71
2023/01/09 01:58:14;;;;;;;5.85;3.65;;;6.40;99.90;;;;;;5038739;28;20037;-71
2023/01/09 02:00:46;;;;;;;9.90;3.75;;;6.40;99.90;;;;;;5035009;28;20032;-71
2023/01/09 02:03:16;;;;;;;7.72;4.35;;;6.40;99.90;;;;;;5040184;28;20076;-70
2023/01/09 02:05:42;;;;;;;15.63;4.72;;;6.30;99.90;;;;;;5040511;28;20068;-70
2023/01/09 02:08:08;;;;;;;14.52;5.00;;;6.30;99.90;;;;;;5038668;28;20034;-72
2023/01/09 02:10:36;;;;;;;11.43;4.43;;;6.30;99.90;;;;;;5039232;28;20025;-71
2023/01/09 02:13:02;;;;;;;15.68;5.10;;;6.30;99.90;;;;;;5039057;28;20049;-70
2023/01/09 02:15:37;;;;;;;17.33;5.85;;;6.40;99.90;;;;;;5042040;28;20021;-70
2023/01/09 02:18:12;;;;;;;11.77;5.63;;;6.40;99.90;;;;;;5044122;28;20039;-70
2023/01/09 02:20:47;;;;;;;10.38;5.60;;;6.40;99.90;;;;;;5043125;28;20056;-71
2023/01/09 02:23:42;;;;;;;13.00;5.93;;;6.40;99.90;;;;;;5044559;28;20056;-70
2023/01/09 02:26:26;;;;;;;15.60;6.63;;;6.40;99.90;;;;;;5035278;28;20100;-71
2023/01/09 02:29:30;;;;;;;15.48;5.70;;;6.40;99.90;;;;;;5044580;28;20091;-70
2023/01/09 02:32:09;;;;;;;14.82;6.30;;;6.40;99.90;;;;;;5040917;28;20026;-70
2023/01/09 02:35:16;;;;;;;11.07;6.10;;;6.40;99.90;;;;;;5042261;28;20056;-69
2023/01/09 02:37:45;;;;;;;11.57;5.70;;;6.40;99.90;;;;;;5041975;28;20039;-69
2023/01/09 02:40:26;;;;;;;15.80;5.88;;;6.40;99.90;;;;;;5043686;28;20022;-70
2023/01/09 02:42:55;;;;;;;14.80;6.22;;;6.40;99.90;;;;;;5044218;28;20017;-69
2023/01/09 02:45:21;;;;;;;11.63;6.07;;;6.40;99.90;;;;;;5043792;28;20026;-68
2023/01/09 02:47:47;;;;;;;11.68;6.18;;;6.40;99.90;;;;;;5044028;28;20049;-69
2023/01/09 02:50:23;;;;;;;16.23;7.32;;;6.40;99.90;;;;;;5043528;28;20028;-69
2023/01/09 02:53:07;;;;;;;15.90;6.97;;;6.50;99.90;;;;;;5043915;28;20712;-70
2023/01/09 02:55:44;;;;;;;16.38;7.22;;;6.50;99.90;;;;;;5044204;28;20132;-69
2023/01/09 02:58:18;;;;;;;15.25;7.75;;;6.50;99.90;;;;;;5043123;28;20509;-70
2023/01/09 03:00:59;;;;;;;15.75;7.43;;;6.50;99.90;;;;;;5043781;28;20031;-71
2023/01/09 03:03:50;;;;;;;13.48;7.43;;;6.50;99.90;;;;;;5042254;28;20088;-71
2023/01/09 03:06:16;;;;;;;13.52;7.47;;;6.50;99.90;;;;;;5043539;28;20450;-69
2023/01/09 03:08:48;;;;;;;15.32;7.50;;;6.60;99.90;;;;;;5043534;28;20029;-70
2023/01/09 03:11:13;;;;;;;18.13;9.10;;;6.60;99.90;;;;;;5043514;28;20014;-69
2023/01/09 03:13:53;;;;;;;17.02;9.05;;;6.60;99.90;;;;;;5042830;28;20033;-71
2023/01/09 03:16:23;;;;;;;15.70;8.23;;;6.60;99.90;;;;;;5043596;28;20037;-70
2023/01/09 03:18:50;;;;;;;26.52;9.40;;;6.60;99.90;;;;;;5043362;28;20013;-70
2023/01/09 03:21:16;;;;;;;15.18;8.32;;;6.60;99.90;;;;;;5043009;28;20036;-70
2023/01/09 03:23:59;;;;;;;18.08;8.63;;;6.60;99.90;;;;;;5043288;28;20033;-71
2023/01/09 03:26:25;;;;;;;13.25;7.22;;;6.60;99.90;;;;;;5042796;28;20041;-70
2023/01/09 03:28:51;;;;;;;17.63;8.40;;;6.70;99.90;;;;;;5042994;28;20032;-70
2023/01/09 03:31:17;;;;;;;18.25;8.68;;;6.70;99.90;;;;;;5043167;28;20029;-69
2023/01/09 03:33:43;;;;;;;20.02;8.05;;;6.60;99.90;;;;;;5043128;28;20014;-72
2023/01/09 03:36:10;;;;;;;15.55;8.32;;;6.70;99.90;;;;;;5043039;28;20493;-71
2023/01/09 03:38:36;;;;;;;21.58;7.88;;;6.70;99.90;;;;;;5042662;28;20044;-70
2023/01/09 03:41:02;;;;;;;17.73;8.02;;;6.70;99.90;;;;;;5043074;28;20030;-72
2023/01/09 03:43:28;;;;;;;30.27;8.88;;;6.70;99.90;;;;;;5042447;28;20037;-72
2023/01/09 03:45:54;;;;;;;16.83;7.75;;;6.70;99.90;;;;;;5043151;28;20033;-70
2023/01/09 03:48:19;;;;;;;18.90;8.70;;;6.70;99.90;;;;;;5042552;28;20029;-72
2023/01/09 03:50:48;;;;;;;19.27;8.05;;;6.70;99.90;;;;;;5042827;28;20034;-71
2023/01/09 03:53:14;;;;;;;23.33;8.77;;;6.80;99.90;;;;;;5042498;28;20108;-69
2023/01/09 03:55:44;;;;;;;22.33;9.25;;;6.70;99.90;;;;;;5040826;28;20029;-72
2023/01/09 03:58:09;;;;;;;25.67;9.48;;;6.80;99.90;;;;;;5041216;28;20041;-72
2023/01/09 04:00:39;;;;;;;26.95;9.88;;;6.80;99.90;;;;;;5042555;28;20048;-71
2023/01/09 04:03:06;;;;;;;29.27;11.23;;;6.80;99.90;;;;;;5042404;28;21130;-70
2023/01/09 04:05:32;;;;;;;27.23;11.65;;;6.80;99.90;;;;;;5042122;28;20148;-70
2023/01/09 04:07:58;;;;;;;25.65;9.75;;;6.80;99.90;;;;;;5042087;28;20036;-71
2023/01/09 04:10:23;;;;;;;22.13;9.38;;;6.80;99.90;;;;;;5042911;28;20025;-71
2023/01/09 04:12:49;;;;;;;26.05;9.90;;;6.70;99.90;;;;;;5042567;28;20029;-70
2023/01/09 04:15:15;;;;;;;18.67;7.78;;;6.80;99.90;;;;;;5041738;28;20086;-70
2023/01/09 04:17:40;;;;;;;17.25;8.48;;;6.80;99.90;;;;;;5042394;28;20064;-70
2023/01/09 04:20:07;;;;;;;15.35;8.60;;;6.80;99.90;;;;;;5042324;28;20021;-68
2023/01/09 04:22:32;;;;;;;16.73;8.40;;;6.80;99.90;;;;;;5042357;28;20029;-71
2023/01/09 04:24:58;;;;;;;15.80;8.05;;;6.80;99.90;;;;;;5042021;28;20053;-70
2023/01/09 04:27:24;;;;;;;14.20;7.30;;;6.80;99.90;;;;;;5041090;28;20064;-70
2023/01/09 04:29:50;;;;;;;17.65;7.90;;;6.80;99.90;;;;;;5042355;28;20041;-72
2023/01/09 04:32:15;;;;;;;15.50;8.38;;;6.80;99.90;;;;;;5042075;28;20028;-70
2023/01/09 04:34:41;;;;;;;19.30;7.70;;;6.80;99.90;;;;;;5040327;28;20031;-69
2023/01/09 04:37:07;;;;;;;17.70;7.82;;;6.80;99.90;;;;;;5041914;28;20049;-71
2023/01/09 04:39:36;;;;;;;12.90;7.20;;;6.80;99.90;;;;;;5041593;28;20026;-70
2023/01/09 04:42:01;;;;;;;15.90;7.32;;;6.80;99.90;;;;;;5041812;28;20025;-71
2023/01/09 04:44:27;;;;;;;17.00;7.68;;;6.70;99.90;;;;;;5042140;28;20044;-71
2023/01/09 04:46:55;;;;;;;17.38;8.13;;;6.70;99.90;;;;;;5040548;28;20056;-73
2023/01/09 04:49:21;;;;;;;18.13;7.85;;;6.80;99.90;;;;;;5041745;28;20033;-71
2023/01/09 04:51:47;;;;;;;13.65;7.72;;;6.70;99.90;;;;;;5041127;28;20018;-70
2023/01/09 04:54:13;;;;;;;16.48;7.60;;;6.70;99.90;;;;;;5039078;28;20060;-70
2023/01/09 04:56:38;;;;;;;20.17;7.65;;;6.70;99.90;;;;;;5040450;28;20128;-72
2023/01/09 04:59:05;;;;;;;19.10;8.75;;;6.70;99.90;;;;;;5041743;28;20025;-70
2023/01/09 05:01:31;;;;;;;15.52;8.10;;;6.70;99.90;;;;;;5039228;28;20021;-71
2023/01/09 05:03:57;;;;;;;19.95;9.18;;;6.70;99.90;;;;;;5039391;28;20033;-70
2023/01/09 05:06:22;;;;;;;18.55;8.82;;;6.70;99.90;;;;;;5041203;28;20087;-72
2023/01/09 05:08:49;;;;;;;19.98;8.52;;;6.70;99.90;;;;;;5040768;28;20037;-72
2023/01/09 05:11:15;;;;;;;17.55;9.30;;;6.70;99.90;;;;;;5041087;28;20508;-71
2023/01/09 05:13:41;;;;;;;18.85;9.68;;;6.60;99.90;;;;;;5039824;28;20052;-72
2023/01/09 05:16:07;;;;;;;20.45;9.98;;;6.60;99.90;;;;;;5041273;28;20030;-71
2023/01/09 05:18:38;;;;;;;23.10;11.68;;;6.60;99.90;;;;;;5041284;28;20026;-72
2023/01/09 05:21:04;;;;;;;20.40;11.63;;;6.60;99.90;;;;;;5039471;28;20022;-70
2023/01/09 05:23:29;;;;;;;20.90;11.70;;;6.60;99.90;;;;;;5039769;28;20021;-72
2023/01/09 05:25:55;;;;;;;24.02;13.60;;;6.60;99.90;;;;;;5039610;28;20045;-69
2023/01/09 05:28:21;;;;;;;24.42;13.10;;;6.60;99.90;;;;;;5039826;28;20030;-72
2023/01/09 05:30:46;;;;;;;28.20;13.90;;;6.60;99.90;;;;;;5040903;28;20072;-71
2023/01/09 05:33:12;;;;;;;26.55;13.10;;;6.60;99.90;;;;;;5039599;28;20386;-72
2023/01/09 05:35:38;;;;;;;22.20;12.27;;;6.60;99.90;;;;;;5038919;28;20490;-72
2023/01/09 05:38:03;;;;;;;20.05;10.13;;;6.60;99.90;;;;;;5040839;28;20097;-71
2023/01/09 05:40:29;;;;;;;18.08;8.70;;;6.60;99.90;;;;;;5040701;28;20104;-73
2023/01/09 05:42:54;;;;;;;18.70;6.53;;;6.60;99.90;;;;;;5039580;28;20022;-71
2023/01/09 05:45:20;;;;;;;13.88;6.55;;;6.60;99.90;;;;;;5039949;28;20029;-72
2023/01/09 05:47:45;;;;;;;13.93;5.82;;;6.50;99.90;;;;;;5039478;28;20025;-70
2023/01/09 05:50:15;;;;;;;10.35;5.50;;;6.50;99.90;;;;;;5037739;28;20034;-74
2023/01/09 05:52:41;;;;;;;9.55;4.95;;;6.50;99.90;;;;;;5040702;28;20036;-70
2023/01/09 05:55:07;;;;;;;10.63;4.93;;;6.30;99.90;;;;;;5040756;28;20033;-70
2023/01/09 05:57:33;;;;;;;9.50;5.03;;;6.40;99.90;;;;;;5040505;28;20069;-71
2023/01/09 05:59:58;;;;;;;10.65;5.50;;;6.30;99.90;;;;;;5041043;28;20040;-72
2023/01/09 06:02:24;;;;;;;8.98;5.10;;;6.30;99.90;;;;;;5039554;28;20025;-70
2023/01/09 06:04:50;;;;;;;11.90;4.28;;;6.30;99.90;;;;;;5040820;28;20504;-70
2023/01/09 06:07:15;;;;;;;13.48;4.95;;;6.30;99.90;;;;;;5039418;28;20120;-70
2023/01/09 06:09:41;;;;;;;11.48;5.05;;;6.20;99.90;;;;;;5040657;28;20025;-70
2023/01/09 06:12:07;;;;;;;13.43;6.00;;;6.20;99.90;;;;;;5040727;28;20025;-72
2023/01/09 06:14:33;;;;;;;10.80;5.18;;;6.20;99.90;;;;;;5040543;28;20059;-71
2023/01/09 06:16:58;;;;;;;10.40;4.95;;;6.00;99.90;;;;;;5039228;28;20045;-70
2023/01/09 06:19:24;;;;;;;11.43;5.78;;;6.10;99.90;;;;;;5040686;28;20025;-71
2023/01/09 06:21:53;;;;;;;18.65;5.88;;;6.10;99.90;;;;;;5040062;28;20044;-73
2023/01/09 06:24:19;;;;;;;13.93;5.45;;;6.00;99.90;;;;;;5040414;28;20037;-71
2023/01/09 06:26:45;;;;;;;12.25;5.50;;;6.00;99.90;;;;;;5040564;28;20072;-72
2023/01/09 06:29:10;;;;;;;14.10;5.00;;;5.90;99.90;;;;;;5037793;28;20034;-70
2023/01/09 06:31:36;;;;;;;15.15;5.40;;;5.90;99.90;;;;;;5039553;28;20040;-72
2023/01/09 06:34:02;;;;;;;13.18;6.05;;;5.90;99.90;;;;;;5040330;28;20029;-72
2023/01/09 06:36:27;;;;;;;13.32;5.95;;;5.80;99.90;;;;;;5040364;28;20041;-72
2023/01/09 06:38:53;;;;;;;12.57;5.90;;;5.90;99.90;;;;;;5040819;28;20052;-71
2023/01/09 06:41:18;;;;;;;14.25;5.95;;;5.80;99.90;;;;;;5039228;28;20065;-71
2023/01/09 06:43:44;;;;;;;14.98;5.85;;;5.80;99.90;;;;;;5036521;28;20037;-71
2023/01/09 06:46:10;;;;;;;17.70;6.30;;;5.80;99.90;;;;;;5039651;28;20459;-71
2023/01/09 06:48:36;;;;;;;13.05;5.65;;;5.70;99.90;;;;;;5038310;28;20025;-71
2023/01/09 06:51:02;;;;;;;14.52;6.65;;;5.60;99.90;;;;;;5036512;28;20089;-71
2023/01/09 06:53:29;;;;;;;19.65;6.20;;;5.60;99.90;;;;;;5038710;28;20084;-71
2023/01/09 06:55:55;;;;;;;14.13;6.18;;;5.60;99.90;;;;;;5039216;28;20132;-72
2023/01/09 06:58:20;;;;;;;16.45;7.47;;;5.70;99.90;;;;;;5037770;28;20073;-71
2023/01/09 07:00:48;;;;;;;19.75;7.63;;;5.60;99.90;;;;;;5039191;28;20030;-70
2023/01/09 07:03:18;;;;;;;20.33;7.10;;;5.60;99.90;;;;;;5040891;28;20017;-71
2023/01/09 07:05:46;;;;;;;20.25;7.88;;;5.60;99.90;;;;;;5040593;28;20478;-71
2023/01/09 07:08:11;;;;;;;19.45;8.05;;;5.50;99.90;;;;;;5037606;28;21897;-69
2023/01/09 07:10:39;;;;;;;18.77;8.05;;;5.40;99.90;;;;;;5038652;28;20057;-70
2023/01/09 07:13:04;;;;;;;17.88;7.88;;;5.50;99.90;;;;;;5042737;28;20055;-72
2023/01/09 07:15:31;;;;;;;19.33;8.07;;;5.60;99.90;;;;;;5041747;28;20053;-71
2023/01/09 07:17:57;;;;;;;22.60;9.82;;;5.50;99.90;;;;;;5041847;28;20084;-70
2023/01/09 07:20:22;;;;;;;21.50;8.88;;;5.40;99.90;;;;;;5041769;28;20021;-70
2023/01/09 07:22:48;;;;;;;22.50;9.55;;;5.40;99.90;;;;;;5042058;28;20040;-72
2023/01/09 07:25:13;;;;;;;27.30;10.48;;;5.40;99.90;;;;;;5041993;28;20057;-70
2023/01/09 07:27:39;;;;;;;28.77;9.68;;;5.40;99.90;;;;;;5041075;28;20099;-71
2023/01/09 07:30:05;;;;;;;27.02;10.70;;;5.40;99.90;;;;;;5039932;28;20029;-70
2023/01/09 07:32:32;;;;;;;27.40;9.90;;;5.40;99.90;;;;;;5036698;28;20124;-71
2023/01/09 07:34:58;;;;;;;23.30;10.25;;;5.40;99.90;;;;;;5042044;28;20025;-69
2023/01/09 07:37:24;;;;;;;25.98;11.23;;;5.40;99.90;;;;;;5038734;28;20044;-71
2023/01/09 07:39:49;;;;;;;25.85;11.32;;;5.40;99.90;;;;;;5035345;28;20091;-71
2023/01/09 07:42:15;;;;;;;19.65;10.07;;;5.40;99.90;;;;;;5042743;28;20025;-70
2023/01/09 07:44:45;;;;;;;25.55;11.60;;;5.40;99.90;;;;;;5042198;28;20034;-71
2023/01/09 07:47:10;;;;;;;27.60;11.20;;;5.40;99.90;;;;;;5042291;28;20025;-71
2023/01/09 07:49:36;;;;;;;30.48;11.85;;;5.40;99.90;;;;;;5041788;28;20478;-73
2023/01/09 07:52:01;;;;;;;31.55;11.95;;;5.40;99.90;;;;;;5042707;28;20030;-70
2023/01/09 07:54:27;;;;;;;25.65;10.95;;;5.40;99.90;;;;;;5040886;28;20141;-71
2023/01/09 07:56:54;;;;;;;29.50;12.45;;;5.30;99.90;;;;;;5038954;28;20108;-73
2023/01/09 07:59:20;;;;;;;28.15;11.65;;;5.40;99.90;;;;;;5042933;28;20025;-71
2023/01/09 08:01:46;;;;;;;29.17;12.90;;;5.40;99.90;;;;;;5041403;28;20042;-71
2023/01/09 08:04:12;;;;;;;25.98;11.68;;;5.40;99.90;;;;;;5040814;28;20037;-71
2023/01/09 08:06:37;;;;;;;30.15;11.93;;;5.50;99.90;;;;;;5041396;28;20077;-71
2023/01/09 08:09:03;;;;;;;30.58;13.18;;;5.50;99.90;;;;;;5040606;28;20033;-70
2023/01/09 08:11:28;;;;;;;32.50;13.88;;;5.50;99.90;;;;;;5040425;28;20022;-71
2023/01/09 08:13:54;;;;;;;34.47;15.07;;;5.50;99.90;;;;;;5041102;28;20026;-71
2023/01/09 08:16:19;;;;;;;34.03;15.75;;;5.60;99.90;;;;;;5039195;28;20044;-70
2023/01/09 08:18:45;;;;;;;37.53;15.68;;;5.60;99.90;;;;;;5041513;28;20040;-71
2023/01/09 08:21:11;;;;;;;37.05;15.50;;;5.70;99.90;;;;;;5041169;28;20061;-70
2023/01/09 08:23:37;;;;;;;32.22;13.48;;;5.70;99.90;;;;;;5039833;28;20092;-70
2023/01/09 08:26:03;;;;;;;37.63;14.32;;;5.70;99.90;;;;;;5041881;28;20057;-70
2023/01/09 08:28:29;;;;;;;27.00;13.32;;;5.80;99.90;;;;;;5041177;28;20394;-71
2023/01/09 08:30:55;;;;;;;34.55;13.48;;;5.80;99.90;;;;;;5036078;28;20049;-70
2023/01/09 08:33:21;;;;;;;30.02;13.40;;;5.80;99.90;;;;;;5037996;28;20092;-69
2023/01/09 08:35:46;;;;;;;28.02;12.20;;;5.80;99.90;;;;;;5040069;28;20507;-71
2023/01/09 08:38:12;;;;;;;33.50;13.30;;;5.80;99.90;;;;;;5041942;28;20092;-71
2023/01/09 08:40:37;;;;;;;32.08;12.38;;;5.80;99.90;;;;;;5040816;28;20490;-71
2023/01/09 08:47:04;;;;;;;25.50;10.32;;;5.90;99.90;;;;;;5042105;28;20065;-73
2023/01/09 08:48:49;;;;;;;26.67;11.43;;;5.90;99.90;;;;;;5038477;28;20109;-70
2023/01/09 08:51:15;;;;;;;25.92;10.63;;;5.90;99.90;;;;;;5039363;28;20037;-72
2023/01/09 08:53:41;;;;;;;28.30;10.80;;;5.90;99.90;;;;;;5039639;28;20033;-70
2023/01/09 08:56:06;;;;;;;30.58;11.90;;;5.90;99.90;;;;;;5041876;28;20048;-71
2023/01/09 08:58:33;;;;;;;28.13;11.75;;;6.00;99.90;;;;;;5040519;28;20060;-73
2023/01/09 09:00:59;;;;;;;26.25;10.38;;;6.00;99.90;;;;;;5040350;28;20037;-71
2023/01/09 09:03:25;;;;;;;21.27;10.85;;;6.10;99.90;;;;;;5039841;28;20043;-71
2023/01/09 09:05:50;;;;;;;27.63;10.95;;;6.00;99.90;;;;;;5041064;28;20030;-70
2023/01/09 09:08:16;;;;;;;25.80;10.57;;;6.10;99.90;;;;;;5041322;28;20044;-71
2023/01/09 09:10:42;;;;;;;26.20;10.30;;;6.10;99.90;;;;;;5036708;28;20030;-72
2023/01/09 09:13:07;;;;;;;30.52;11.02;;;6.20;99.90;;;;;;5039250;28;20037;-72
2023/01/09 09:15:33;;;;;;;28.27;11.73;;;6.20;99.90;;;;;;5040743;28;20021;-72
2023/01/09 09:18:02;;;;;;;24.52;10.50;;;6.20;99.90;;;;;;5041698;28;20089;-72
2023/01/09 09:20:30;;;;;;;29.88;11.57;;;6.30;99.90;;;;;;5041157;28;20029;-72
2023/01/09 09:22:58;;;;;;;22.55;10.48;;;6.30;99.90;;;;;;5035429;28;20053;-72
2023/01/09 09:25:24;;;;;;;21.50;10.80;;;6.30;99.90;;;;;;5039505;28;20117;-72
2023/01/09 09:27:51;;;;;;;34.65;15.75;;;6.40;99.90;;;;;;5039796;28;20109;-73
2023/01/09 09:30:18;;;;;;;26.27;10.30;;;6.50;99.90;;;;;;5039446;28;20048;-72
2023/01/09 09:32:45;;;;;;;27.65;11.05;;;6.70;99.90;;;;;;5037391;28;20103;-72
2023/01/09 09:35:11;;;;;;;20.92;8.75;;;6.80;99.90;;;;;;5039405;28;20025;-72
2023/01/09 09:37:37;;;;;;;26.35;8.10;;;6.90;99.90;;;;;;5039003;28;20033;-70
2023/01/09 09:40:04;;;;;;;20.38;8.60;;;6.90;99.90;;;;;;5034453;28;20053;-73
2023/01/09 09:46:27;;;;;;;19.77;8.57;;;6.90;99.90;;;;;;5015996;28;20054;-71
2023/01/09 09:48:58;;;;;;;14.73;6.85;;;6.90;99.90;;;;;;5001790;28;20094;-72
2023/01/09 09:51:45;;;;;;;21.17;8.05;;;6.90;99.90;;;;;;5037221;28;20045;-70
2023/01/09 09:54:20;;;;;;;17.02;7.63;;;6.90;99.90;;;;;;5038231;28;20041;-72
2023/01/09 09:56:52;;;;;;;24.60;8.45;;;6.80;99.90;;;;;;5033454;28;20037;-71
2023/01/09 09:59:23;;;;;;;21.52;7.95;;;6.90;99.90;;;;;;5033958;28;20037;-70
2023/01/09 10:02:03;;;;;;;24.95;8.10;;;6.80;99.90;;;;;;5036869;28;20040;-71
2023/01/09 10:04:32;;;;;;;24.85;7.43;;;6.80;99.90;;;;;;5040341;28;20038;-71
2023/01/09 10:07:08;;;;;;;21.10;8.43;;;6.90;99.90;;;;;;5037864;28;20049;-72
2023/01/09 10:09:52;;;;;;;18.90;7.70;;;6.90;99.90;;;;;;5033323;28;20025;-71
2023/01/09 10:12:30;;;;;;;17.57;7.77;;;6.80;99.90;;;;;;5036789;28;20039;-71
2023/01/09 10:14:59;;;;;;;26.63;8.55;;;6.90;99.90;;;;;;5036436;28;20354;-72
2023/01/09 10:17:53;;;;;;;23.23;9.82;;;6.90;99.90;;;;;;5039773;28;20433;-72
2023/01/09 10:20:37;;;;;;;32.70;13.95;;;6.90;99.90;;;;;;5039103;28;20037;-71
2023/01/09 10:23:26;;;;;;;23.42;9.55;;;6.90;99.90;;;;;;5037245;28;20029;-72
2023/01/09 10:26:00;;;;;;;26.25;10.63;;;6.80;99.90;;;;;;5039225;28;20053;-73
2023/01/09 10:28:38;;;;;;;24.60;10.50;;;6.80;99.90;;;;;;5040252;28;20108;-73
2023/01/09 10:31:12;;;;;;;25.33;10.13;;;6.90;99.90;;;;;;5040445;28;20029;-71
2023/01/09 10:34:11;;;;;;;40.25;14.13;;;6.90;99.90;;;;;;5040491;28;20108;-73
2023/01/09 10:37:07;;;;;;;25.08;11.43;;;6.90;99.90;;;;;;5041589;28;20030;-71
2023/01/09 10:39:49;;;;;;;20.10;10.05;;;6.90;99.90;;;;;;5044124;28;20052;-72
2023/01/09 10:42:19;;;;;;;21.23;10.70;;;6.90;99.90;;;;;;5042347;28;20045;-72
2023/01/09 10:45:20;;;;;;;26.58;9.75;;;6.90;99.90;;;;;;5040471;28;20040;-72
2023/01/09 10:47:47;;;;;;;25.98;10.90;;;6.90;99.90;;;;;;5037551;28;20049;-70
2023/01/09 10:50:27;;;;;;;26.95;10.65;;;7.00;99.90;;;;;;5041812;28;20025;-72
2023/01/09 10:52:55;;;;;;;26.98;10.52;;;7.00;99.90;;;;;;5041667;28;20064;-73
2023/01/09 10:55:42;;;;;;;27.10;12.35;;;7.00;99.90;;;;;;5040695;28;20462;-72
2023/01/09 10:58:13;;;;;;;29.58;12.65;;;7.10;99.90;;;;;;5043084;28;20044;-72
2023/01/09 11:00:40;;;;;;;30.92;12.52;;;7.10;99.90;;;;;;5043190;28;20036;-72
2023/01/09 11:03:10;;;;;;;32.50;12.05;;;7.10;99.90;;;;;;5042313;28;20041;-73
2023/01/09 11:05:36;;;;;;;34.90;14.10;;;7.10;99.90;;;;;;5041843;28;20021;-71
2023/01/09 11:08:28;;;;;;;30.05;12.00;;;7.10;99.90;;;;;;5037361;28;20052;-72
2023/01/09 11:10:57;;;;;;;38.63;15.15;;;7.20;99.90;;;;;;5040654;28;20037;-72
2023/01/09 11:13:25;;;;;;;34.33;14.75;;;7.20;99.90;;;;;;5041318;28;20036;-71
2023/01/09 11:16:16;;;;;;;36.53;13.95;;;7.30;99.90;;;;;;5040723;28;20335;-72
2023/01/09 11:18:59;;;;;;;33.42;12.40;;;7.40;99.90;;;;;;5038297;28;20045;-71
2023/01/09 11:21:37;;;;;;;39.65;13.75;;;7.40;99.90;;;;;;5041150;28;20061;-72
2023/01/09 11:24:18;;;;;;;31.67;14.55;;;7.40;99.90;;;;;;5042717;28;20022;-72
2023/01/09 11:26:45;;;;;;;29.92;13.40;;;7.40;99.90;;;;;;5043340;28;20029;-71
2023/01/09 11:29:13;;;;;;;25.10;12.10;;;7.40;99.90;;;;;;5043165;28;20029;-71
2023/01/09 11:31:40;;;;;;;24.45;12.57;;;7.40;99.90;;;;;;5041917;28;20025;-71
2023/01/09 11:34:27;;;;;;;28.13;12.35;;;7.30;99.90;;;;;;5041937;28;20025;-72
2023/01/09 11:37:02;;;;;;;27.15;11.88;;;7.30;99.90;;;;;;5042523;28;20140;-71
2023/01/09 11:39:31;;;;;;;32.25;12.68;;;7.30;99.90;;;;;;5041705;28;20028;-72
2023/01/09 11:42:00;;;;;;;29.17;12.55;;;7.40;99.90;;;;;;5042380;28;20089;-72
2023/01/09 11:44:28;;;;;;;27.05;11.93;;;7.40;99.90;;;;;;5035479;28;20044;-72
2023/01/09 11:46:54;;;;;;;20.98;9.65;;;7.40;99.90;;;;;;5041058;28;20052;-73
2023/01/09 11:49:24;;;;;;;24.85;10.57;;;7.40;99.90;;;;;;5040441;28;20030;-72
2023/01/09 11:52:19;;;;;;;28.67;12.45;;;7.40;99.90;;;;;;5040342;28;20038;-73
2023/01/09 11:55:09;;;;;;;22.45;10.38;;;7.40;99.90;;;;;;5036645;28;20013;-71
2023/01/09 11:57:34;;;;;;;29.85;12.13;;;7.40;99.90;;;;;;5039179;28;20037;-70
2023/01/09 12:00:26;;;;;;;28.85;12.07;;;7.40;99.90;;;;;;5035573;28;20072;-71
2023/01/09 12:03:09;;;;;;;28.63;10.95;;;7.40;99.90;;;;;;5037220;28;20033;-73
2023/01/09 12:05:55;;;;;;;33.47;10.77;;;7.40;99.90;;;;;;5040079;28;20378;-69
2023/01/09 12:08:36;;;;;;;21.80;11.05;;;7.40;99.90;;;;;;5039446;28;20045;-70
2023/01/09 12:11:11;;;;;;;24.02;11.30;;;7.40;99.90;;;;;;5038631;28;20065;-72
2023/01/09 12:14:12;;;;;;;28.60;11.05;;;7.40;99.90;;;;;;5041113;28;20035;-71
2023/01/09 12:17:12;;;;;;;22.38;10.57;;;7.40;99.90;;;;;;5038221;28;20045;-72
2023/01/09 12:20:10;;;;;;;26.17;11.15;;;7.40;99.90;;;;;;5041071;28;20037;-72
2023/01/09 12:23:02;;;;;;;26.73;10.30;;;7.30;99.90;;;;;;5037965;28;20036;-72
2023/01/09 12:25:56;;;;;;;19.02;9.13;;;7.40;99.90;;;;;;5040830;28;20118;-73
2023/01/09 12:28:41;;;;;;;19.63;9.90;;;7.40;99.90;;;;;;5040027;28;20037;-71
2023/01/09 12:31:20;;;;;;;24.80;9.32;;;7.40;99.90;;;;;;5039360;28;20577;-72
2023/01/09 12:34:06;;;;;;;22.35;9.68;;;7.40;99.90;;;;;;5039231;28;20041;-71
2023/01/09 12:37:03;;;;;;;26.50;9.75;;;7.30;99.90;;;;;;5040521;28;20066;-74
2023/01/09 12:39:35;;;;;;;20.33;8.93;;;7.40;99.90;;;;;;5041029;28;20096;-71
2023/01/09 12:42:32;;;;;;;22.80;8.95;;;7.40;99.90;;;;;;5040394;28;20029;-71
2023/01/09 12:45:32;;;;;;;20.00;8.70;;;7.40;99.90;;;;;;5038586;28;20060;-72
2023/01/09 12:48:12;;;;;;;22.23;9.15;;;7.40;99.90;;;;;;5039702;28;20060;-72
2023/01/09 12:50:46;;;;;;;19.50;8.65;;;7.40;99.90;;;;;;5037680;28;20152;-72
2023/01/09 12:53:18;;;;;;;20.50;9.02;;;7.40;99.90;;;;;;5039891;28;20223;-71
2023/01/09 12:56:19;;;;;;;29.70;9.05;;;7.40;99.90;;;;;;5041222;28;20045;-71
2023/01/09 12:58:50;;;;;;;20.92;8.80;;;7.30;99.90;;;;;;5040730;28;20108;-71
2023/01/09 13:01:41;;;;;;;22.58;9.65;;;7.30;99.90;;;;;;5036546;28;20116;-73
2023/01/09 13:04:24;;;;;;;16.67;8.43;;;7.30;99.90;;;;;;5040942;28;20049;-72
2023/01/09 13:07:04;;;;;;;23.38;9.60;;;7.30;99.90;;;;;;5039286;28;20029;-71
2023/01/09 13:09:55;;;;;;;20.67;7.43;;;7.30;99.90;;;;;;5040587;28;20047;-74
2023/01/09 13:12:23;;;;;;;20.10;8.93;;;7.30;99.90;;;;;;5041263;28;20033;-73
2023/01/09 13:14:58;;;;;;;26.00;8.23;;;7.20;99.90;;;;;;5040176;28;20065;-72